PWSweather.com
Personal Weather Stations
Station Observations
DEKREUPEL
Wsv De Kreupel, AndijkNL 1619 JV

Wsv De KreupelAndijkNL 1619 JV

Lat: 52.7417364, Lon: 5.1809356

Elevation: 33

Station Type: Rainwise MKiii LR

High Low Average
Temperature 55.9°F13.3°F 43.6°F6.4°F 47.5°F8.6°F
Dew Point 83.3°F28.5°F 69.4°F20.8°F 73.8°F23.2°F
Winds 27.5 mph WNW44.3 mph WNW Calm Calm 5.5 mph 8.9 mph
Wind Gusts 32.9 mph52.9 mph -- 7.0 mph11.3 mph
Humidity 0% 0% 0%
Pressure 30.31 in1026.40 in 30.05 in1017.60 in -
Precipitation 0.00 in0.00 in - -
Hour Temp Dew Point Humidity Winds Wind Gusts Pressure Precip Precip Rate Daily Precip Total
12:04 AM 47.0°F8.3°C 73.2°F22.9°C - Calm Calm -- 30.31 in1026.4 mb 0.00 in0.0 mm 0.00 in0.0 mm 0.00 in0.0 mm
12:09 AM 47.2°F8.4°C 73.5°F23.1°C - Calm Calm -- 30.31 in1026.4 mb 0.00 in0.0 mm 0.00 in0.0 mm 0.00 in0.0 mm
12:14 AM 47.2°F8.4°C 73.4°F23.0°C - Calm Calm -- 30.31 in1026.4 mb 0.00 in0.0 mm 0.00 in0.0 mm 0.00 in0.0 mm
12:19 AM 47.2°F8.4°C 73.4°F23.0°C - Calm Calm -- 30.30 in1026.1 mb 0.00 in0.0 mm 0.00 in0.0 mm 0.00 in0.0 mm
12:24 AM 47.2°F8.4°C 73.4°F23.0°C - Calm Calm -- 30.30 in1026.1 mb 0.00 in0.0 mm 0.00 in0.0 mm 0.00 in0.0 mm
12:29 AM 47.2°F8.4°C 73.5°F23.1°C - Calm Calm -- 30.30 in1026.1 mb 0.00 in0.0 mm 0.00 in0.0 mm 0.00 in0.0 mm
12:34 AM 47.2°F8.4°C 73.5°F23.1°C - Calm Calm -- 30.30 in1026.1 mb 0.00 in0.0 mm 0.00 in0.0 mm 0.00 in0.0 mm
12:39 AM 47.5°F8.6°C 73.9°F23.3°C - Calm Calm -- 30.29 in1025.7 mb 0.00 in0.0 mm 0.00 in0.0 mm 0.00 in0.0 mm
12:44 AM 47.6°F8.7°C 74.0°F23.3°C - Calm Calm -- 30.29 in1025.7 mb 0.00 in0.0 mm 0.00 in0.0 mm 0.00 in0.0 mm
12:49 AM 47.8°F8.8°C 74.1°F23.4°C - Calm Calm -- 30.29 in1025.7 mb 0.00 in0.0 mm 0.00 in0.0 mm 0.00 in0.0 mm
12:54 AM 47.9°F8.8°C 74.3°F23.5°C - Calm Calm -- 30.29 in1025.7 mb 0.00 in0.0 mm 0.00 in0.0 mm 0.00 in0.0 mm
12:59 AM 48.0°F8.9°C 74.4°F23.6°C - Calm Calm -- 30.28 in1025.4 mb 0.00 in0.0 mm 0.00 in0.0 mm 0.00 in0.0 mm
01:04 AM 48.0°F8.9°C 74.3°F23.5°C - Calm Calm -- 30.28 in1025.4 mb 0.00 in0.0 mm 0.00 in0.0 mm 0.00 in0.0 mm
01:09 AM 48.0°F8.9°C 74.4°F23.6°C - Calm Calm -- 30.28 in1025.4 mb 0.00 in0.0 mm 0.00 in0.0 mm 0.00 in0.0 mm
01:14 AM 47.8°F8.8°C 74.2°F23.4°C - Calm Calm -- 30.28 in1025.4 mb 0.00 in0.0 mm 0.00 in0.0 mm 0.00 in0.0 mm
01:19 AM 47.7°F8.7°C 74.1°F23.4°C - Calm Calm -- 30.28 in1025.4 mb 0.00 in0.0 mm 0.00 in0.0 mm 0.00 in0.0 mm
01:24 AM 47.7°F8.7°C 74.0°F23.3°C - Calm Calm -- 30.28 in1025.4 mb 0.00 in0.0 mm 0.00 in0.0 mm 0.00 in0.0 mm
01:29 AM 47.7°F8.7°C 74.1°F23.4°C - Calm Calm -- 30.28 in1025.4 mb 0.00 in0.0 mm 0.00 in0.0 mm 0.00 in0.0 mm
01:34 AM 47.8°F8.8°C 74.2°F23.4°C - Calm Calm -- 30.28 in1025.4 mb 0.00 in0.0 mm 0.00 in0.0 mm 0.00 in0.0 mm
01:39 AM 47.7°F8.7°C 74.1°F23.4°C - Calm Calm -- 30.27 in1025.1 mb 0.00 in0.0 mm 0.00 in0.0 mm 0.00 in0.0 mm
01:44 AM 47.8°F8.8°C 74.2°F23.4°C - Calm Calm -- 30.27 in1025.1 mb 0.00 in0.0 mm 0.00 in0.0 mm 0.00 in0.0 mm
01:49 AM 47.8°F8.8°C 74.2°F23.4°C - Calm Calm -- 30.27 in1025.1 mb 0.00 in0.0 mm 0.00 in0.0 mm 0.00 in0.0 mm
01:54 AM 47.8°F8.8°C 74.2°F23.4°C - Calm Calm -- 30.27 in1025.1 mb 0.00 in0.0 mm 0.00 in0.0 mm 0.00 in0.0 mm
01:59 AM 47.8°F8.8°C 74.1°F23.4°C - Calm Calm -- 30.27 in1025.1 mb 0.00 in0.0 mm 0.00 in0.0 mm 0.00 in0.0 mm
02:04 AM 47.8°F8.8°C 74.2°F23.4°C - Calm Calm -- 30.27 in1025.1 mb 0.00 in0.0 mm 0.00 in0.0 mm 0.00 in0.0 mm
02:09 AM 47.8°F8.8°C 74.1°F23.4°C - Calm Calm -- 30.27 in1025.1 mb 0.00 in0.0 mm 0.00 in0.0 mm 0.00 in0.0 mm
02:14 AM 47.7°F8.7°C 74.1°F23.4°C - Calm Calm -- 30.27 in1025.1 mb 0.00 in0.0 mm 0.00 in0.0 mm 0.00 in0.0 mm
02:19 AM 47.6°F8.7°C 74.0°F23.3°C - Calm Calm -- 30.27 in1025.1 mb 0.00 in0.0 mm 0.00 in0.0 mm 0.00 in0.0 mm
02:24 AM 47.6°F8.7°C 74.0°F23.3°C - Calm Calm -- 30.27 in1025.1 mb 0.00 in0.0 mm 0.00 in0.0 mm 0.00 in0.0 mm
02:29 AM 47.5°F8.6°C 73.9°F23.3°C - Calm Calm -- 30.27 in1025.1 mb 0.00 in0.0 mm 0.00 in0.0 mm 0.00 in0.0 mm
02:34 AM 47.5°F8.6°C 73.8°F23.2°C - Calm Calm -- 30.26 in1024.7 mb 0.00 in0.0 mm 0.00 in0.0 mm 0.00 in0.0 mm
02:39 AM 47.7°F8.7°C 74.0°F23.3°C - Calm Calm -- 30.26 in1024.7 mb 0.00 in0.0 mm 0.00 in0.0 mm 0.00 in0.0 mm
02:44 AM 47.7°F8.7°C 74.1°F23.4°C - Calm Calm -- 30.26 in1024.7 mb 0.00 in0.0 mm 0.00 in0.0 mm 0.00 in0.0 mm
02:49 AM 47.7°F8.7°C 74.1°F23.4°C - Calm Calm -- 30.26 in1024.7 mb 0.00 in0.0 mm 0.00 in0.0 mm 0.00 in0.0 mm
02:54 AM 47.7°F8.7°C 74.1°F23.4°C - Calm Calm -- 30.26 in1024.7 mb 0.00 in0.0 mm 0.00 in0.0 mm 0.00 in0.0 mm
02:59 AM 47.7°F8.7°C 74.0°F23.3°C - Calm Calm -- 30.25 in1024.4 mb 0.00 in0.0 mm 0.00 in0.0 mm 0.00 in0.0 mm
03:04 AM 47.8°F8.8°C 74.2°F23.4°C - Calm Calm -- 30.25 in1024.4 mb 0.00 in0.0 mm 0.00 in0.0 mm 0.00 in0.0 mm
03:09 AM 47.7°F8.7°C 74.1°F23.4°C - Calm Calm -- 30.25 in1024.4 mb 0.00 in0.0 mm 0.00 in0.0 mm 0.00 in0.0 mm
03:14 AM 47.5°F8.6°C 73.9°F23.3°C - Calm Calm -- 30.25 in1024.4 mb 0.00 in0.0 mm 0.00 in0.0 mm 0.00 in0.0 mm
03:19 AM 47.4°F8.6°C 73.7°F23.2°C - Calm Calm -- 30.25 in1024.4 mb 0.00 in0.0 mm 0.00 in0.0 mm 0.00 in0.0 mm
03:24 AM 47.3°F8.5°C 73.7°F23.2°C - Calm Calm -- 30.24 in1024.0 mb 0.00 in0.0 mm 0.00 in0.0 mm 0.00 in0.0 mm
03:29 AM 47.2°F8.4°C 73.5°F23.1°C - Calm Calm -- 30.24 in1024.0 mb 0.00 in0.0 mm 0.00 in0.0 mm 0.00 in0.0 mm
03:34 AM 47.2°F8.4°C 73.5°F23.1°C - Calm Calm -- 30.24 in1024.0 mb 0.00 in0.0 mm 0.00 in0.0 mm 0.00 in0.0 mm
03:39 AM 47.2°F8.4°C 73.5°F23.1°C - Calm Calm -- 30.23 in1023.7 mb 0.00 in0.0 mm 0.00 in0.0 mm 0.00 in0.0 mm
03:44 AM 47.2°F8.4°C 73.5°F23.1°C - Calm Calm -- 30.23 in1023.7 mb 0.00 in0.0 mm 0.00 in0.0 mm 0.00 in0.0 mm
03:49 AM 47.3°F8.5°C 73.5°F23.1°C - Calm Calm -- 30.23 in1023.7 mb 0.00 in0.0 mm 0.00 in0.0 mm 0.00 in0.0 mm
03:54 AM 47.2°F8.4°C 73.5°F23.1°C - Calm Calm -- 30.23 in1023.7 mb 0.00 in0.0 mm 0.00 in0.0 mm 0.00 in0.0 mm
03:59 AM 47.2°F8.4°C 73.5°F23.1°C - Calm Calm -- 30.22 in1023.4 mb 0.00 in0.0 mm 0.00 in0.0 mm 0.00 in0.0 mm
04:04 AM 47.2°F8.4°C 73.4°F23.0°C - Calm Calm -- 30.22 in1023.4 mb 0.00 in0.0 mm 0.00 in0.0 mm 0.00 in0.0 mm
04:09 AM 47.2°F8.4°C 73.5°F23.1°C - Calm Calm -- 30.22 in1023.4 mb 0.00 in0.0 mm 0.00 in0.0 mm 0.00 in0.0 mm
04:14 AM 47.2°F8.4°C 73.5°F23.1°C - Calm Calm -- 30.21 in1023.0 mb 0.00 in0.0 mm 0.00 in0.0 mm 0.00 in0.0 mm
04:19 AM 47.2°F8.4°C 73.5°F23.1°C - Calm Calm -- 30.21 in1023.0 mb 0.00 in0.0 mm 0.00 in0.0 mm 0.00 in0.0 mm
04:24 AM 47.2°F8.4°C 73.5°F23.1°C - Calm Calm -- 30.21 in1023.0 mb 0.00 in0.0 mm 0.00 in0.0 mm 0.00 in0.0 mm
04:29 AM 47.2°F8.4°C 73.5°F23.1°C - Calm Calm -- 30.21 in1023.0 mb 0.00 in0.0 mm 0.00 in0.0 mm 0.00 in0.0 mm
04:34 AM 47.2°F8.4°C 73.5°F23.1°C - Calm Calm -- 30.21 in1023.0 mb 0.00 in0.0 mm 0.00 in0.0 mm 0.00 in0.0 mm
04:39 AM 47.2°F8.4°C 73.5°F23.1°C - Calm Calm -- 30.21 in1023.0 mb 0.00 in0.0 mm 0.00 in0.0 mm 0.00 in0.0 mm
04:44 AM 47.2°F8.4°C 73.5°F23.1°C - Calm Calm -- 30.21 in1023.0 mb 0.00 in0.0 mm 0.00 in0.0 mm 0.00 in0.0 mm
04:49 AM 47.2°F8.4°C 73.5°F23.1°C - Calm Calm -- 30.20 in1022.7 mb 0.00 in0.0 mm 0.00 in0.0 mm 0.00 in0.0 mm
04:54 AM 47.2°F8.4°C 73.5°F23.1°C - Calm Calm -- 30.20 in1022.7 mb 0.00 in0.0 mm 0.00 in0.0 mm 0.00 in0.0 mm
04:59 AM 47.2°F8.4°C 73.5°F23.1°C - Calm Calm -- 30.20 in1022.7 mb 0.00 in0.0 mm 0.00 in0.0 mm 0.00 in0.0 mm
05:04 AM 47.3°F8.5°C 73.7°F23.2°C - 13.4 mph W21.6 kmh W 17.4 mph28.0 kmh 30.20 in1022.7 mb 0.00 in0.0 mm 0.00 in0.0 mm 0.00 in0.0 mm
05:09 AM 47.3°F8.5°C 73.5°F23.1°C - 14.1 mph W22.7 kmh W 17.2 mph27.7 kmh 30.20 in1022.7 mb 0.00 in0.0 mm 0.00 in0.0 mm 0.00 in0.0 mm
05:14 AM 47.3°F8.5°C 73.7°F23.2°C - 12.9 mph W20.8 kmh W 16.0 mph25.7 kmh 30.19 in1022.4 mb 0.00 in0.0 mm 0.00 in0.0 mm 0.00 in0.0 mm
05:19 AM 47.3°F8.5°C 73.7°F23.2°C - 14.7 mph W23.7 kmh W 18.2 mph29.3 kmh 30.19 in1022.4 mb 0.00 in0.0 mm 0.00 in0.0 mm 0.00 in0.0 mm
05:24 AM 47.3°F8.5°C 73.7°F23.2°C - 14.6 mph W23.5 kmh W 18.5 mph29.8 kmh 30.19 in1022.4 mb 0.00 in0.0 mm 0.00 in0.0 mm 0.00 in0.0 mm
05:29 AM 47.5°F8.6°C 73.9°F23.3°C - 15.9 mph W25.6 kmh W 19.8 mph31.9 kmh 30.19 in1022.4 mb 0.00 in0.0 mm 0.00 in0.0 mm 0.00 in0.0 mm
05:34 AM 47.5°F8.6°C 73.9°F23.3°C - 13.3 mph W21.4 kmh W 16.1 mph25.9 kmh 30.19 in1022.4 mb 0.00 in0.0 mm 0.00 in0.0 mm 0.00 in0.0 mm
05:39 AM 47.5°F8.6°C 73.9°F23.3°C - 14.4 mph W23.2 kmh W 16.9 mph27.2 kmh 30.19 in1022.4 mb 0.00 in0.0 mm 0.00 in0.0 mm 0.00 in0.0 mm
05:44 AM 47.5°F8.6°C 73.9°F23.3°C - 14.6 mph W23.5 kmh W 17.8 mph28.6 kmh 30.18 in1022.0 mb 0.00 in0.0 mm 0.00 in0.0 mm 0.00 in0.0 mm
05:49 AM 47.3°F8.5°C 73.7°F23.2°C - 13.8 mph W22.2 kmh W 16.7 mph26.9 kmh 30.18 in1022.0 mb 0.00 in0.0 mm 0.00 in0.0 mm 0.00 in0.0 mm
05:54 AM 47.2°F8.4°C 73.5°F23.1°C - 14.8 mph W23.8 kmh W 18.2 mph29.3 kmh 30.18 in1022.0 mb 0.00 in0.0 mm 0.00 in0.0 mm 0.00 in0.0 mm
05:59 AM 47.2°F8.4°C 73.4°F23.0°C - 14.5 mph W23.3 kmh W 18.0 mph29.0 kmh 30.18 in1022.0 mb 0.00 in0.0 mm 0.00 in0.0 mm 0.00 in0.0 mm
06:04 AM 47.2°F8.4°C 73.5°F23.1°C - 14.0 mph W22.5 kmh W 17.2 mph27.7 kmh 30.18 in1022.0 mb 0.00 in0.0 mm 0.00 in0.0 mm 0.00 in0.0 mm
06:09 AM 47.2°F8.4°C 73.5°F23.1°C - 13.8 mph W22.2 kmh W 16.4 mph26.4 kmh 30.18 in1022.0 mb 0.00 in0.0 mm 0.00 in0.0 mm 0.00 in0.0 mm
06:14 AM 47.2°F8.4°C 73.5°F23.1°C - 14.1 mph W22.7 kmh W 18.0 mph29.0 kmh 30.17 in1021.7 mb 0.00 in0.0 mm 0.00 in0.0 mm 0.00 in0.0 mm
06:19 AM 47.2°F8.4°C 73.5°F23.1°C - 13.7 mph W22.0 kmh W 16.5 mph26.6 kmh 30.17 in1021.7 mb 0.00 in0.0 mm 0.00 in0.0 mm 0.00 in0.0 mm
06:24 AM 47.2°F8.4°C 73.4°F23.0°C - 13.5 mph W21.7 kmh W 17.0 mph27.4 kmh 30.17 in1021.7 mb 0.00 in0.0 mm 0.00 in0.0 mm 0.00 in0.0 mm
06:29 AM 47.2°F8.4°C 73.5°F23.1°C - 11.7 mph W18.8 kmh W 15.9 mph25.6 kmh 30.17 in1021.7 mb 0.00 in0.0 mm 0.00 in0.0 mm 0.00 in0.0 mm
06:34 AM 47.2°F8.4°C 73.5°F23.1°C - 12.7 mph W20.4 kmh W 16.0 mph25.7 kmh 30.16 in1021.3 mb 0.00 in0.0 mm 0.00 in0.0 mm 0.00 in0.0 mm
06:39 AM 47.2°F8.4°C 73.5°F23.1°C - 12.1 mph W19.5 kmh W 15.2 mph24.5 kmh 30.16 in1021.3 mb 0.00 in0.0 mm 0.00 in0.0 mm 0.00 in0.0 mm
06:44 AM 47.3°F8.5°C 73.7°F23.2°C - 13.1 mph W21.1 kmh W 16.2 mph26.1 kmh 30.16 in1021.3 mb 0.00 in0.0 mm 0.00 in0.0 mm 0.00 in0.0 mm
06:49 AM 47.4°F8.6°C 73.8°F23.2°C - 12.0 mph W19.3 kmh W 15.4 mph24.8 kmh 30.16 in1021.3 mb 0.00 in0.0 mm 0.00 in0.0 mm 0.00 in0.0 mm
06:54 AM 47.6°F8.7°C 74.0°F23.3°C - 14.4 mph W23.2 kmh W 17.1 mph27.5 kmh 30.15 in1021.0 mb 0.00 in0.0 mm 0.00 in0.0 mm 0.00 in0.0 mm
06:59 AM 47.7°F8.7°C 74.1°F23.4°C - 14.7 mph W23.7 kmh W 17.9 mph28.8 kmh 30.15 in1021.0 mb 0.00 in0.0 mm 0.00 in0.0 mm 0.00 in0.0 mm
07:04 AM 47.7°F8.7°C 74.0°F23.3°C - 10.3 mph W16.6 kmh W 15.3 mph24.6 kmh 30.15 in1021.0 mb 0.00 in0.0 mm 0.00 in0.0 mm 0.00 in0.0 mm
07:09 AM 47.7°F8.7°C 74.0°F23.3°C - 12.0 mph W19.3 kmh W 17.0 mph27.4 kmh 30.15 in1021.0 mb 0.00 in0.0 mm 0.00 in0.0 mm 0.00 in0.0 mm
07:14 AM 47.8°F8.8°C 74.2°F23.4°C - 14.4 mph W23.2 kmh W 17.9 mph28.8 kmh 30.15 in1021.0 mb 0.00 in0.0 mm 0.00 in0.0 mm 0.00 in0.0 mm
07:19 AM 48.0°F8.9°C 74.4°F23.6°C - 15.6 mph W25.1 kmh W 18.5 mph29.8 kmh 30.15 in1021.0 mb 0.00 in0.0 mm 0.00 in0.0 mm 0.00 in0.0 mm
07:24 AM 48.1°F8.9°C 74.6°F23.7°C - 14.2 mph W22.9 kmh W 17.7 mph28.5 kmh 30.15 in1021.0 mb 0.00 in0.0 mm 0.00 in0.0 mm 0.00 in0.0 mm
07:29 AM 48.2°F9.0°C 74.7°F23.7°C - 15.5 mph W24.9 kmh W 19.6 mph31.5 kmh 30.15 in1021.0 mb 0.00 in0.0 mm 0.00 in0.0 mm 0.00 in0.0 mm
07:34 AM 48.2°F9.0°C 74.7°F23.7°C - 16.5 mph W26.6 kmh W 20.6 mph33.2 kmh 30.14 in1020.7 mb 0.00 in0.0 mm 0.00 in0.0 mm 0.00 in0.0 mm
07:39 AM 48.2°F9.0°C 74.7°F23.7°C - 14.2 mph W22.9 kmh W 17.0 mph27.4 kmh 30.14 in1020.7 mb 0.00 in0.0 mm 0.00 in0.0 mm 0.00 in0.0 mm
07:44 AM 48.2°F9.0°C 74.7°F23.7°C - 7.0 mph W11.3 kmh W 12.8 mph20.6 kmh 30.14 in1020.7 mb 0.00 in0.0 mm 0.00 in0.0 mm 0.00 in0.0 mm
07:49 AM 48.2°F9.0°C 74.7°F23.7°C - 15.3 mph W24.6 kmh W 19.1 mph30.7 kmh 30.15 in1021.0 mb 0.00 in0.0 mm 0.00 in0.0 mm 0.00 in0.0 mm
07:54 AM 48.2°F9.0°C 74.7°F23.7°C - 15.7 mph W25.3 kmh W 18.6 mph29.9 kmh 30.14 in1020.7 mb 0.00 in0.0 mm 0.00 in0.0 mm 0.00 in0.0 mm
07:59 AM 48.2°F9.0°C 74.7°F23.7°C - 14.8 mph W23.8 kmh W 17.6 mph28.3 kmh 30.14 in1020.7 mb 0.00 in0.0 mm 0.00 in0.0 mm 0.00 in0.0 mm
08:04 AM 48.3°F9.1°C 74.8°F23.8°C - 15.4 mph W24.8 kmh W 18.5 mph29.8 kmh 30.14 in1020.7 mb 0.00 in0.0 mm 0.00 in0.0 mm 0.00 in0.0 mm
08:09 AM 48.3°F9.1°C 74.7°F23.7°C - 15.9 mph W25.6 kmh W 20.1 mph32.3 kmh 30.14 in1020.7 mb 0.00 in0.0 mm 0.00 in0.0 mm 0.00 in0.0 mm
08:14 AM 48.3°F9.1°C 74.8°F23.8°C - 14.6 mph W23.5 kmh W 17.3 mph27.8 kmh 30.14 in1020.7 mb 0.00 in0.0 mm 0.00 in0.0 mm 0.00 in0.0 mm
08:19 AM 48.3°F9.1°C 74.8°F23.8°C - 16.6 mph W26.7 kmh W 20.9 mph33.6 kmh 30.14 in1020.7 mb 0.00 in0.0 mm 0.00 in0.0 mm 0.00 in0.0 mm
08:24 AM 48.5°F9.2°C 75.0°F23.9°C - 17.5 mph W28.2 kmh W 21.5 mph34.6 kmh 30.14 in1020.7 mb 0.00 in0.0 mm 0.00 in0.0 mm 0.00 in0.0 mm
08:29 AM 48.7°F9.3°C 75.1°F23.9°C - 18.4 mph W29.6 kmh W 22.3 mph35.9 kmh 30.14 in1020.7 mb 0.00 in0.0 mm 0.00 in0.0 mm 0.00 in0.0 mm
08:34 AM 48.8°F9.3°C 75.2°F24.0°C - 16.7 mph W26.9 kmh W 20.6 mph33.2 kmh 30.14 in1020.7 mb 0.00 in0.0 mm 0.00 in0.0 mm 0.00 in0.0 mm
08:39 AM 48.8°F9.3°C 75.2°F24.0°C - 17.1 mph W27.5 kmh W 21.3 mph34.3 kmh 30.13 in1020.3 mb 0.00 in0.0 mm 0.00 in0.0 mm 0.00 in0.0 mm
08:44 AM 49.0°F9.4°C 75.6°F24.2°C - 16.5 mph W26.6 kmh W 19.9 mph32.0 kmh 30.13 in1020.3 mb 0.00 in0.0 mm 0.00 in0.0 mm 0.00 in0.0 mm
08:49 AM 49.0°F9.4°C 75.4°F24.1°C - 16.2 mph W26.1 kmh W 18.8 mph30.3 kmh 30.13 in1020.3 mb 0.00 in0.0 mm 0.00 in0.0 mm 0.00 in0.0 mm
08:54 AM 49.0°F9.4°C 75.6°F24.2°C - 17.3 mph W27.8 kmh W 21.6 mph34.8 kmh 30.13 in1020.3 mb 0.00 in0.0 mm 0.00 in0.0 mm 0.00 in0.0 mm
08:59 AM 49.0°F9.4°C 75.4°F24.1°C - 17.3 mph W27.8 kmh W 20.9 mph33.6 kmh 30.13 in1020.3 mb 0.00 in0.0 mm 0.00 in0.0 mm 0.00 in0.0 mm
09:04 AM 49.1°F9.5°C 75.7°F24.3°C - 17.1 mph W27.5 kmh W 21.9 mph35.2 kmh 30.13 in1020.3 mb 0.00 in0.0 mm 0.00 in0.0 mm 0.00 in0.0 mm
09:09 AM 49.1°F9.5°C 75.7°F24.3°C - 17.2 mph W27.7 kmh W 20.1 mph32.3 kmh 30.13 in1020.3 mb 0.00 in0.0 mm 0.00 in0.0 mm 0.00 in0.0 mm
09:14 AM 49.1°F9.5°C 75.7°F24.3°C - 17.6 mph W28.3 kmh W 22.6 mph36.4 kmh 30.12 in1020.0 mb 0.00 in0.0 mm 0.00 in0.0 mm 0.00 in0.0 mm
09:19 AM 49.2°F9.6°C 75.7°F24.3°C - 21.7 mph W34.9 kmh W 27.2 mph43.8 kmh 30.12 in1020.0 mb 0.00 in0.0 mm 0.00 in0.0 mm 0.00 in0.0 mm
09:24 AM 49.2°F9.6°C 75.8°F24.3°C - 20.9 mph W33.6 kmh W 25.5 mph41.0 kmh 30.12 in1020.0 mb 0.00 in0.0 mm 0.00 in0.0 mm 0.00 in0.0 mm
09:29 AM 49.2°F9.6°C 75.8°F24.3°C - 22.2 mph W35.7 kmh W 26.2 mph42.2 kmh 30.12 in1020.0 mb 0.00 in0.0 mm 0.00 in0.0 mm 0.00 in0.0 mm
09:34 AM 49.2°F9.6°C 75.7°F24.3°C - 13.6 mph WNW21.9 kmh WNW 23.9 mph38.5 kmh 30.12 in1020.0 mb 0.00 in0.0 mm 0.00 in0.0 mm 0.00 in0.0 mm
09:39 AM 49.3°F9.6°C 75.8°F24.3°C - 14.5 mph W23.3 kmh W 25.8 mph41.5 kmh 30.11 in1019.6 mb 0.00 in0.0 mm 0.00 in0.0 mm 0.00 in0.0 mm
09:44 AM 49.3°F9.6°C 75.8°F24.3°C - 21.6 mph W34.8 kmh W 26.7 mph43.0 kmh 30.11 in1019.6 mb 0.00 in0.0 mm 0.00 in0.0 mm 0.00 in0.0 mm
09:49 AM 49.2°F9.6°C 75.7°F24.3°C - 16.9 mph WNW27.2 kmh WNW 25.1 mph40.4 kmh 30.12 in1020.0 mb 0.00 in0.0 mm 0.00 in0.0 mm 0.00 in0.0 mm
09:54 AM 49.2°F9.6°C 75.8°F24.3°C - 21.0 mph W33.8 kmh W 23.5 mph37.8 kmh 30.11 in1019.6 mb 0.00 in0.0 mm 0.00 in0.0 mm 0.00 in0.0 mm
09:59 AM 49.2°F9.6°C 75.8°F24.3°C - 18.1 mph W29.1 kmh W 22.5 mph36.2 kmh 30.12 in1020.0 mb 0.00 in0.0 mm 0.00 in0.0 mm 0.00 in0.0 mm
10:04 AM 49.3°F9.6°C 75.9°F24.4°C - 18.4 mph W29.6 kmh W 22.2 mph35.7 kmh 30.11 in1019.6 mb 0.00 in0.0 mm 0.00 in0.0 mm 0.00 in0.0 mm
10:09 AM 49.6°F9.8°C 76.2°F24.6°C - 19.7 mph W31.7 kmh W 24.3 mph39.1 kmh 30.11 in1019.6 mb 0.00 in0.0 mm 0.00 in0.0 mm 0.00 in0.0 mm
10:14 AM 49.6°F9.8°C 76.2°F24.6°C - 18.8 mph W30.3 kmh W 23.2 mph37.3 kmh 30.11 in1019.6 mb 0.00 in0.0 mm 0.00 in0.0 mm 0.00 in0.0 mm
10:19 AM 49.5°F9.7°C 76.1°F24.5°C - 16.3 mph W26.2 kmh W 21.9 mph35.2 kmh 30.11 in1019.6 mb 0.00 in0.0 mm 0.00 in0.0 mm 0.00 in0.0 mm
10:24 AM 49.6°F9.8°C 76.2°F24.6°C - 14.3 mph W23.0 kmh W 22.7 mph36.5 kmh 30.11 in1019.6 mb 0.00 in0.0 mm 0.00 in0.0 mm 0.00 in0.0 mm
10:29 AM 49.6°F9.8°C 76.1°F24.5°C - 19.3 mph W31.1 kmh W 23.2 mph37.3 kmh 30.11 in1019.6 mb 0.00 in0.0 mm 0.00 in0.0 mm 0.00 in0.0 mm
10:34 AM 49.7°F9.8°C 76.4°F24.7°C - 18.6 mph WNW29.9 kmh WNW 22.5 mph36.2 kmh 30.11 in1019.6 mb 0.00 in0.0 mm 0.00 in0.0 mm 0.00 in0.0 mm
10:39 AM 49.7°F9.8°C 76.4°F24.7°C - 23.4 mph W37.7 kmh W 27.7 mph44.6 kmh 30.10 in1019.3 mb 0.00 in0.0 mm 0.00 in0.0 mm 0.00 in0.0 mm
10:44 AM 49.8°F9.9°C 76.5°F24.7°C - 21.5 mph W34.6 kmh W 24.9 mph40.1 kmh 30.10 in1019.3 mb 0.00 in0.0 mm 0.00 in0.0 mm 0.00 in0.0 mm
10:49 AM 50.0°F10.0°C 76.7°F24.8°C - 24.0 mph WNW38.6 kmh WNW 28.0 mph45.1 kmh 30.10 in1019.3 mb 0.00 in0.0 mm 0.00 in0.0 mm 0.00 in0.0 mm
10:54 AM 50.0°F10.0°C 76.7°F24.8°C - 26.1 mph WNW42.0 kmh WNW 30.0 mph48.3 kmh 30.10 in1019.3 mb 0.00 in0.0 mm 0.00 in0.0 mm 0.00 in0.0 mm
10:59 AM 50.0°F10.0°C 76.7°F24.8°C - 21.3 mph W34.3 kmh W 25.0 mph40.2 kmh 30.10 in1019.3 mb 0.00 in0.0 mm 0.00 in0.0 mm 0.00 in0.0 mm
11:04 AM 50.0°F10.0°C 76.7°F24.8°C - 23.8 mph WNW38.3 kmh WNW 28.9 mph46.5 kmh 30.10 in1019.3 mb 0.00 in0.0 mm 0.00 in0.0 mm 0.00 in0.0 mm
11:09 AM 50.0°F10.0°C 76.6°F24.8°C - 24.6 mph WNW39.6 kmh WNW 30.1 mph48.4 kmh 30.10 in1019.3 mb 0.00 in0.0 mm 0.00 in0.0 mm 0.00 in0.0 mm
11:14 AM 49.9°F9.9°C 76.5°F24.7°C - 23.9 mph WNW38.5 kmh WNW 27.8 mph44.7 kmh 30.10 in1019.3 mb 0.00 in0.0 mm 0.00 in0.0 mm 0.00 in0.0 mm
11:19 AM 49.8°F9.9°C 76.5°F24.7°C - 19.9 mph WNW32.0 kmh WNW 23.5 mph37.8 kmh 30.10 in1019.3 mb 0.00 in0.0 mm 0.00 in0.0 mm 0.00 in0.0 mm
11:24 AM 49.8°F9.9°C 76.3°F24.6°C - 21.9 mph WNW35.2 kmh WNW 24.7 mph39.8 kmh 30.10 in1019.3 mb 0.00 in0.0 mm 0.00 in0.0 mm 0.00 in0.0 mm
11:29 AM 50.0°F10.0°C 76.6°F24.8°C - 27.5 mph WNW44.3 kmh WNW 32.9 mph52.9 kmh 30.09 in1019.0 mb 0.00 in0.0 mm 0.00 in0.0 mm 0.00 in0.0 mm
11:34 AM 50.1°F10.1°C 76.7°F24.8°C - 25.0 mph WNW40.2 kmh WNW 29.3 mph47.2 kmh 30.09 in1019.0 mb 0.00 in0.0 mm 0.00 in0.0 mm 0.00 in0.0 mm
11:39 AM 50.1°F10.1°C 76.8°F24.9°C - 24.6 mph WNW39.6 kmh WNW 28.4 mph45.7 kmh 30.09 in1019.0 mb 0.00 in0.0 mm 0.00 in0.0 mm 0.00 in0.0 mm
11:44 AM 50.0°F10.0°C 76.7°F24.8°C - 26.2 mph WNW42.2 kmh WNW 31.1 mph50.1 kmh 30.08 in1018.6 mb 0.00 in0.0 mm 0.00 in0.0 mm 0.00 in0.0 mm
11:49 AM 49.9°F9.9°C 76.5°F24.7°C - 25.9 mph WNW41.7 kmh WNW 31.8 mph51.2 kmh 30.09 in1019.0 mb 0.00 in0.0 mm 0.00 in0.0 mm 0.00 in0.0 mm
11:54 AM 49.8°F9.9°C 76.5°F24.7°C - 21.6 mph WNW34.8 kmh WNW 25.6 mph41.2 kmh 30.09 in1019.0 mb 0.00 in0.0 mm 0.00 in0.0 mm 0.00 in0.0 mm
11:59 AM 49.8°F9.9°C 76.5°F24.7°C - 24.0 mph WNW38.6 kmh WNW 28.7 mph46.2 kmh 30.08 in1018.6 mb 0.00 in0.0 mm 0.00 in0.0 mm 0.00 in0.0 mm
12:04 PM 50.0°F10.0°C 76.6°F24.8°C - 24.8 mph WNW39.9 kmh WNW 30.0 mph48.3 kmh 30.08 in1018.6 mb 0.00 in0.0 mm 0.00 in0.0 mm 0.00 in0.0 mm
12:09 PM 50.1°F10.1°C 76.7°F24.8°C - 23.9 mph WNW38.5 kmh WNW 29.5 mph47.5 kmh 30.08 in1018.6 mb 0.00 in0.0 mm 0.00 in0.0 mm 0.00 in0.0 mm
12:14 PM 50.1°F10.1°C 76.7°F24.8°C - 24.1 mph WNW38.8 kmh WNW 28.9 mph46.5 kmh 30.08 in1018.6 mb 0.00 in0.0 mm 0.00 in0.0 mm 0.00 in0.0 mm
12:19 PM 50.1°F10.1°C 76.7°F24.8°C - 23.4 mph WNW37.7 kmh WNW 27.2 mph43.8 kmh 30.08 in1018.6 mb 0.00 in0.0 mm 0.00 in0.0 mm 0.00 in0.0 mm
12:24 PM 50.1°F10.1°C 76.8°F24.9°C - 24.1 mph WNW38.8 kmh WNW 29.2 mph47.0 kmh 30.08 in1018.6 mb 0.00 in0.0 mm 0.00 in0.0 mm 0.00 in0.0 mm
12:29 PM 50.2°F10.1°C 76.9°F24.9°C - 17.4 mph WNW28.0 kmh WNW 29.5 mph47.5 kmh 30.08 in1018.6 mb 0.00 in0.0 mm 0.00 in0.0 mm 0.00 in0.0 mm
12:34 PM 48.9°F9.4°C 75.3°F24.1°C - Calm Calm -- 30.08 in1018.6 mb 0.00 in0.0 mm 0.00 in0.0 mm 0.03 in0.8 mm
12:39 PM 47.0°F8.3°C 73.2°F22.9°C - Calm Calm -- 30.09 in1019.0 mb 0.00 in0.0 mm 0.00 in0.0 mm 0.05 in1.3 mm
12:44 PM 46.7°F8.2°C 73.0°F22.8°C - Calm Calm -- 30.08 in1018.6 mb 0.00 in0.0 mm 0.00 in0.0 mm 0.07 in1.8 mm
12:49 PM 47.1°F8.4°C 73.4°F23.0°C - Calm Calm -- 30.08 in1018.6 mb 0.00 in0.0 mm 0.00 in0.0 mm 0.08 in2.0 mm
12:54 PM 47.8°F8.8°C 74.2°F23.4°C - Calm Calm -- 30.07 in1018.3 mb 0.00 in0.0 mm 0.00 in0.0 mm 0.10 in2.5 mm
12:59 PM 48.6°F9.2°C 75.0°F23.9°C - Calm Calm -- 30.07 in1018.3 mb 0.00 in0.0 mm 0.00 in0.0 mm 0.11 in2.8 mm
01:04 PM 51.1°F10.6°C 77.9°F25.5°C - 0.5 mph NW0.8 kmh NW 6.3 mph10.1 kmh 30.08 in1018.6 mb 0.00 in0.0 mm 0.00 in0.0 mm 0.13 in3.3 mm
01:09 PM 53.5°F11.9°C 80.6°F27.0°C - 1.0 mph NW1.6 kmh NW 9.0 mph14.5 kmh 30.08 in1018.6 mb 0.00 in0.0 mm 0.00 in0.0 mm 0.14 in3.6 mm
01:14 PM 52.8°F11.6°C 79.8°F26.6°C - 2.4 mph NW3.9 kmh NW 12.5 mph20.1 kmh 30.08 in1018.6 mb 0.00 in0.0 mm 0.00 in0.0 mm 0.16 in4.1 mm
01:19 PM 55.9°F13.3°C 83.3°F28.5°C - Calm Calm -- 30.09 in1019.0 mb 0.00 in0.0 mm 0.00 in0.0 mm 0.16 in4.1 mm
01:24 PM 55.9°F13.3°C 83.3°F28.5°C - Calm Calm -- 30.09 in1019.0 mb 0.00 in0.0 mm 0.00 in0.0 mm 0.17 in4.3 mm
01:29 PM 50.9°F10.5°C 77.7°F25.4°C - Calm Calm -- 30.08 in1018.6 mb 0.00 in0.0 mm 0.00 in0.0 mm 0.17 in4.3 mm
01:34 PM 49.7°F9.8°C 76.4°F24.7°C - Calm Calm -- 30.08 in1018.6 mb 0.00 in0.0 mm 0.00 in0.0 mm 0.17 in4.3 mm
01:39 PM 49.1°F9.5°C 75.6°F24.2°C - Calm Calm -- 30.08 in1018.6 mb 0.00 in0.0 mm 0.00 in0.0 mm 0.17 in4.3 mm
01:44 PM 49.1°F9.5°C 75.7°F24.3°C - Calm Calm -- 30.08 in1018.6 mb 0.00 in0.0 mm 0.00 in0.0 mm 0.17 in4.3 mm
01:49 PM 49.3°F9.6°C 75.9°F24.4°C - Calm Calm -- 30.09 in1019.0 mb 0.00 in0.0 mm 0.00 in0.0 mm 0.17 in4.3 mm
01:54 PM 49.2°F9.6°C 75.8°F24.3°C - Calm Calm -- 30.08 in1018.6 mb 0.00 in0.0 mm 0.00 in0.0 mm 0.17 in4.3 mm
01:59 PM 48.6°F9.2°C 75.0°F23.9°C - Calm Calm -- 30.08 in1018.6 mb 0.00 in0.0 mm 0.00 in0.0 mm 0.17 in4.3 mm
02:04 PM 48.3°F9.1°C 74.8°F23.8°C - Calm Calm -- 30.08 in1018.6 mb 0.00 in0.0 mm 0.00 in0.0 mm 0.17 in4.3 mm
02:09 PM 48.1°F8.9°C 74.4°F23.6°C - Calm Calm -- 30.08 in1018.6 mb 0.00 in0.0 mm 0.00 in0.0 mm 0.17 in4.3 mm
02:14 PM 48.2°F9.0°C 74.7°F23.7°C - Calm Calm -- 30.08 in1018.6 mb 0.00 in0.0 mm 0.00 in0.0 mm 0.17 in4.3 mm
02:19 PM 48.2°F9.0°C 74.7°F23.7°C - Calm Calm -- 30.07 in1018.3 mb 0.00 in0.0 mm 0.00 in0.0 mm 0.17 in4.3 mm
02:24 PM 48.4°F9.1°C 74.9°F23.8°C - Calm Calm -- 30.07 in1018.3 mb 0.00 in0.0 mm 0.00 in0.0 mm 0.17 in4.3 mm
02:29 PM 48.6°F9.2°C 75.1°F23.9°C - Calm Calm -- 30.07 in1018.3 mb 0.00 in0.0 mm 0.00 in0.0 mm 0.17 in4.3 mm
02:34 PM 48.7°F9.3°C 75.2°F24.0°C - Calm Calm -- 30.08 in1018.6 mb 0.00 in0.0 mm 0.00 in0.0 mm 0.17 in4.3 mm
02:39 PM 48.7°F9.3°C 75.2°F24.0°C - Calm Calm -- 30.08 in1018.6 mb 0.00 in0.0 mm 0.00 in0.0 mm 0.17 in4.3 mm
02:44 PM 48.6°F9.2°C 75.1°F23.9°C - Calm Calm -- 30.08 in1018.6 mb 0.00 in0.0 mm 0.00 in0.0 mm 0.17 in4.3 mm
02:49 PM 48.3°F9.1°C 74.7°F23.7°C - Calm Calm -- 30.08 in1018.6 mb 0.00 in0.0 mm 0.00 in0.0 mm 0.17 in4.3 mm
02:54 PM 48.4°F9.1°C 74.9°F23.8°C - Calm Calm -- 30.08 in1018.6 mb 0.00 in0.0 mm 0.00 in0.0 mm 0.17 in4.3 mm
02:59 PM 48.7°F9.3°C 75.2°F24.0°C - Calm Calm -- 30.08 in1018.6 mb 0.00 in0.0 mm 0.00 in0.0 mm 0.17 in4.3 mm
03:04 PM 48.7°F9.3°C 75.2°F24.0°C - Calm Calm -- 30.08 in1018.6 mb 0.00 in0.0 mm 0.00 in0.0 mm 0.17 in4.3 mm
03:09 PM 48.7°F9.3°C 75.2°F24.0°C - Calm Calm -- 30.09 in1019.0 mb 0.00 in0.0 mm 0.00 in0.0 mm 0.17 in4.3 mm
03:14 PM 48.7°F9.3°C 75.2°F24.0°C - Calm Calm -- 30.09 in1019.0 mb 0.00 in0.0 mm 0.00 in0.0 mm 0.17 in4.3 mm
03:19 PM 48.2°F9.0°C 74.7°F23.7°C - Calm Calm -- 30.08 in1018.6 mb 0.00 in0.0 mm 0.00 in0.0 mm 0.17 in4.3 mm
03:24 PM 47.6°F8.7°C 73.9°F23.3°C - Calm Calm -- 30.08 in1018.6 mb 0.00 in0.0 mm 0.00 in0.0 mm 0.17 in4.3 mm
03:29 PM 47.6°F8.7°C 74.0°F23.3°C - Calm Calm -- 30.08 in1018.6 mb 0.00 in0.0 mm 0.00 in0.0 mm 0.17 in4.3 mm
03:34 PM 47.5°F8.6°C 73.8°F23.2°C - Calm Calm -- 30.08 in1018.6 mb 0.00 in0.0 mm 0.00 in0.0 mm 0.17 in4.3 mm
03:39 PM 47.6°F8.7°C 73.9°F23.3°C - Calm Calm -- 30.08 in1018.6 mb 0.00 in0.0 mm 0.00 in0.0 mm 0.17 in4.3 mm
03:44 PM 47.7°F8.7°C 74.1°F23.4°C - Calm Calm -- 30.08 in1018.6 mb 0.00 in0.0 mm 0.00 in0.0 mm 0.17 in4.3 mm
03:49 PM 47.6°F8.7°C 73.9°F23.3°C - Calm Calm -- 30.08 in1018.6 mb 0.00 in0.0 mm 0.00 in0.0 mm 0.17 in4.3 mm
03:54 PM 47.7°F8.7°C 74.1°F23.4°C - Calm Calm -- 30.08 in1018.6 mb 0.00 in0.0 mm 0.00 in0.0 mm 0.17 in4.3 mm
03:59 PM 47.7°F8.7°C 74.1°F23.4°C - Calm Calm -- 30.08 in1018.6 mb 0.00 in0.0 mm 0.00 in0.0 mm 0.17 in4.3 mm
04:04 PM 47.7°F8.7°C 74.1°F23.4°C - Calm Calm -- 30.08 in1018.6 mb 0.00 in0.0 mm 0.00 in0.0 mm 0.17 in4.3 mm
04:09 PM 47.6°F8.7°C 74.0°F23.3°C - Calm Calm -- 30.08 in1018.6 mb 0.00 in0.0 mm 0.00 in0.0 mm 0.17 in4.3 mm
04:14 PM 47.5°F8.6°C 73.9°F23.3°C - Calm Calm -- 30.08 in1018.6 mb 0.00 in0.0 mm 0.00 in0.0 mm 0.17 in4.3 mm
04:19 PM 47.3°F8.5°C 73.7°F23.2°C - Calm Calm -- 30.08 in1018.6 mb 0.00 in0.0 mm 0.00 in0.0 mm 0.17 in4.3 mm
04:24 PM 47.2°F8.4°C 73.5°F23.1°C - Calm Calm -- 30.08 in1018.6 mb 0.00 in0.0 mm 0.00 in0.0 mm 0.17 in4.3 mm
04:29 PM 47.2°F8.4°C 73.5°F23.1°C - Calm Calm -- 30.08 in1018.6 mb 0.00 in0.0 mm 0.00 in0.0 mm 0.17 in4.3 mm
04:34 PM 47.2°F8.4°C 73.5°F23.1°C - Calm Calm -- 30.08 in1018.6 mb 0.00 in0.0 mm 0.00 in0.0 mm 0.17 in4.3 mm
04:39 PM 47.2°F8.4°C 73.5°F23.1°C - Calm Calm -- 30.08 in1018.6 mb 0.00 in0.0 mm 0.00 in0.0 mm 0.17 in4.3 mm
04:44 PM 47.2°F8.4°C 73.5°F23.1°C - Calm Calm -- 30.08 in1018.6 mb 0.00 in0.0 mm 0.00 in0.0 mm 0.17 in4.3 mm
04:49 PM 47.2°F8.4°C 73.5°F23.1°C - Calm Calm -- 30.08 in1018.6 mb 0.00 in0.0 mm 0.00 in0.0 mm 0.17 in4.3 mm
04:54 PM 47.1°F8.4°C 73.4°F23.0°C - Calm Calm -- 30.08 in1018.6 mb 0.00 in0.0 mm 0.00 in0.0 mm 0.17 in4.3 mm
04:59 PM 47.0°F8.3°C 73.3°F22.9°C - Calm Calm -- 30.08 in1018.6 mb 0.00 in0.0 mm 0.00 in0.0 mm 0.17 in4.3 mm
05:04 PM 47.0°F8.3°C 73.3°F22.9°C - Calm Calm -- 30.08 in1018.6 mb 0.00 in0.0 mm 0.00 in0.0 mm 0.17 in4.3 mm
05:09 PM 47.1°F8.4°C 73.3°F22.9°C - Calm Calm -- 30.08 in1018.6 mb 0.00 in0.0 mm 0.00 in0.0 mm 0.17 in4.3 mm
05:14 PM 47.1°F8.4°C 73.4°F23.0°C - Calm Calm -- 30.09 in1019.0 mb 0.00 in0.0 mm 0.00 in0.0 mm 0.17 in4.3 mm
05:19 PM 47.0°F8.3°C 73.3°F22.9°C - Calm Calm -- 30.09 in1019.0 mb 0.00 in0.0 mm 0.00 in0.0 mm 0.17 in4.3 mm
05:24 PM 46.8°F8.2°C 73.1°F22.8°C - Calm Calm -- 30.08 in1018.6 mb 0.00 in0.0 mm 0.00 in0.0 mm 0.17 in4.3 mm
05:29 PM 46.7°F8.2°C 73.0°F22.8°C - Calm Calm -- 30.08 in1018.6 mb 0.00 in0.0 mm 0.00 in0.0 mm 0.17 in4.3 mm
05:34 PM 46.7°F8.2°C 72.9°F22.7°C - Calm Calm -- 30.08 in1018.6 mb 0.00 in0.0 mm 0.00 in0.0 mm 0.17 in4.3 mm
05:39 PM 46.5°F8.1°C 72.8°F22.7°C - Calm Calm -- 30.08 in1018.6 mb 0.00 in0.0 mm 0.00 in0.0 mm 0.17 in4.3 mm
05:44 PM 46.5°F8.1°C 72.6°F22.6°C - Calm Calm -- 30.08 in1018.6 mb 0.00 in0.0 mm 0.00 in0.0 mm 0.17 in4.3 mm
05:49 PM 46.5°F8.1°C 72.8°F22.7°C - Calm Calm -- 30.08 in1018.6 mb 0.00 in0.0 mm 0.00 in0.0 mm 0.17 in4.3 mm
05:54 PM 46.3°F7.9°C 72.5°F22.5°C - Calm Calm -- 30.08 in1018.6 mb 0.00 in0.0 mm 0.00 in0.0 mm 0.17 in4.3 mm
05:59 PM 46.3°F7.9°C 72.5°F22.5°C - Calm Calm -- 30.08 in1018.6 mb 0.00 in0.0 mm 0.00 in0.0 mm 0.17 in4.3 mm
06:04 PM 46.3°F7.9°C 72.5°F22.5°C - Calm Calm -- 30.08 in1018.6 mb 0.00 in0.0 mm 0.00 in0.0 mm 0.17 in4.3 mm
06:09 PM 46.2°F7.9°C 72.3°F22.4°C - Calm Calm -- 30.08 in1018.6 mb 0.00 in0.0 mm 0.00 in0.0 mm 0.17 in4.3 mm
06:14 PM 46.1°F7.8°C 72.2°F22.3°C - Calm Calm -- 30.08 in1018.6 mb 0.00 in0.0 mm 0.00 in0.0 mm 0.17 in4.3 mm
06:19 PM 46.0°F7.8°C 72.2°F22.3°C - Calm Calm -- 30.08 in1018.6 mb 0.00 in0.0 mm 0.00 in0.0 mm 0.17 in4.3 mm
06:24 PM 46.0°F7.8°C 72.1°F22.3°C - Calm Calm -- 30.08 in1018.6 mb 0.00 in0.0 mm 0.00 in0.0 mm 0.17 in4.3 mm
06:29 PM 46.1°F7.8°C 72.3°F22.4°C - Calm Calm -- 30.08 in1018.6 mb 0.00 in0.0 mm 0.00 in0.0 mm 0.17 in4.3 mm
06:34 PM 46.0°F7.8°C 72.2°F22.3°C - Calm Calm -- 30.08 in1018.6 mb 0.00 in0.0 mm 0.00 in0.0 mm 0.17 in4.3 mm
06:39 PM 45.8°F7.7°C 71.9°F22.2°C - Calm Calm -- 30.08 in1018.6 mb 0.00 in0.0 mm 0.00 in0.0 mm 0.17 in4.3 mm
06:44 PM 45.8°F7.7°C 72.0°F22.2°C - Calm Calm -- 30.08 in1018.6 mb 0.00 in0.0 mm 0.00 in0.0 mm 0.17 in4.3 mm
06:49 PM 45.8°F7.7°C 71.9°F22.2°C - Calm Calm -- 30.07 in1018.3 mb 0.00 in0.0 mm 0.00 in0.0 mm 0.17 in4.3 mm
06:54 PM 45.8°F7.7°C 71.9°F22.2°C - Calm Calm -- 30.07 in1018.3 mb 0.00 in0.0 mm 0.00 in0.0 mm 0.17 in4.3 mm
06:59 PM 45.7°F7.6°C 71.7°F22.1°C - Calm Calm -- 30.08 in1018.6 mb 0.00 in0.0 mm 0.00 in0.0 mm 0.17 in4.3 mm
07:04 PM 45.6°F7.6°C 71.6°F22.0°C - Calm Calm -- 30.07 in1018.3 mb 0.00 in0.0 mm 0.00 in0.0 mm 0.17 in4.3 mm
07:09 PM 45.7°F7.6°C 71.9°F22.2°C - Calm Calm -- 30.07 in1018.3 mb 0.00 in0.0 mm 0.00 in0.0 mm 0.17 in4.3 mm
07:14 PM 45.8°F7.7°C 72.0°F22.2°C - Calm Calm -- 30.07 in1018.3 mb 0.00 in0.0 mm 0.00 in0.0 mm 0.17 in4.3 mm
07:19 PM 46.1°F7.8°C 72.3°F22.4°C - Calm Calm -- 30.07 in1018.3 mb 0.00 in0.0 mm 0.00 in0.0 mm 0.18 in4.6 mm
07:24 PM 46.5°F8.1°C 72.6°F22.6°C - Calm Calm -- 30.07 in1018.3 mb 0.00 in0.0 mm 0.00 in0.0 mm 0.18 in4.6 mm
07:29 PM 46.6°F8.1°C 72.8°F22.7°C - Calm Calm -- 30.07 in1018.3 mb 0.00 in0.0 mm 0.00 in0.0 mm 0.18 in4.6 mm
07:34 PM 46.6°F8.1°C 72.9°F22.7°C - Calm Calm -- 30.07 in1018.3 mb 0.00 in0.0 mm 0.00 in0.0 mm 0.18 in4.6 mm
07:39 PM 46.5°F8.1°C 72.8°F22.7°C - Calm Calm -- 30.07 in1018.3 mb 0.00 in0.0 mm 0.00 in0.0 mm 0.18 in4.6 mm
07:44 PM 46.3°F7.9°C 72.4°F22.4°C - Calm Calm -- 30.08 in1018.6 mb 0.00 in0.0 mm 0.00 in0.0 mm 0.18 in4.6 mm
07:49 PM 46.2°F7.9°C 72.4°F22.4°C - Calm Calm -- 30.08 in1018.6 mb 0.00 in0.0 mm 0.00 in0.0 mm 0.18 in4.6 mm
07:54 PM 45.8°F7.7°C 71.9°F22.2°C - Calm Calm -- 30.08 in1018.6 mb 0.00 in0.0 mm 0.00 in0.0 mm 0.18 in4.6 mm
07:59 PM 45.5°F7.5°C 71.5°F21.9°C - Calm Calm -- 30.07 in1018.3 mb 0.00 in0.0 mm 0.00 in0.0 mm 0.18 in4.6 mm
08:04 PM 45.3°F7.4°C 71.4°F21.9°C - Calm Calm -- 30.07 in1018.3 mb 0.00 in0.0 mm 0.00 in0.0 mm 0.18 in4.6 mm
08:09 PM 45.2°F7.3°C 71.2°F21.8°C - Calm Calm -- 30.07 in1018.3 mb 0.00 in0.0 mm 0.00 in0.0 mm 0.18 in4.6 mm
08:14 PM 45.1°F7.3°C 71.1°F21.7°C - Calm Calm -- 30.07 in1018.3 mb 0.00 in0.0 mm 0.00 in0.0 mm 0.18 in4.6 mm
08:19 PM 45.1°F7.3°C 71.2°F21.8°C - Calm Calm -- 30.07 in1018.3 mb 0.00 in0.0 mm 0.00 in0.0 mm 0.18 in4.6 mm
08:24 PM 45.2°F7.3°C 71.3°F21.8°C - Calm Calm -- 30.06 in1017.9 mb 0.00 in0.0 mm 0.00 in0.0 mm 0.18 in4.6 mm
08:29 PM 45.0°F7.2°C 71.0°F21.7°C - Calm Calm -- 30.07 in1018.3 mb 0.00 in0.0 mm 0.00 in0.0 mm 0.18 in4.6 mm
08:34 PM 45.0°F7.2°C 71.0°F21.7°C - Calm Calm -- 30.07 in1018.3 mb 0.00 in0.0 mm 0.00 in0.0 mm 0.18 in4.6 mm
08:39 PM 45.1°F7.3°C 71.1°F21.7°C - Calm Calm -- 30.07 in1018.3 mb 0.00 in0.0 mm 0.00 in0.0 mm 0.18 in4.6 mm
08:44 PM 45.3°F7.4°C 71.4°F21.9°C - Calm Calm -- 30.06 in1017.9 mb 0.00 in0.0 mm 0.00 in0.0 mm 0.18 in4.6 mm
08:49 PM 45.2°F7.3°C 71.3°F21.8°C - Calm Calm -- 30.07 in1018.3 mb 0.00 in0.0 mm 0.00 in0.0 mm 0.18 in4.6 mm
08:54 PM 45.1°F7.3°C 71.2°F21.8°C - Calm Calm -- 30.06 in1017.9 mb 0.00 in0.0 mm 0.00 in0.0 mm 0.18 in4.6 mm
08:59 PM 45.1°F7.3°C 71.2°F21.8°C - Calm Calm -- 30.06 in1017.9 mb 0.00 in0.0 mm 0.00 in0.0 mm 0.18 in4.6 mm
09:04 PM 45.2°F7.3°C 71.3°F21.8°C - Calm Calm -- 30.06 in1017.9 mb 0.00 in0.0 mm 0.00 in0.0 mm 0.18 in4.6 mm
09:09 PM 45.3°F7.4°C 71.4°F21.9°C - Calm Calm -- 30.06 in1017.9 mb 0.00 in0.0 mm 0.00 in0.0 mm 0.18 in4.6 mm
09:14 PM 45.1°F7.3°C 71.1°F21.7°C - Calm Calm -- 30.06 in1017.9 mb 0.00 in0.0 mm 0.00 in0.0 mm 0.18 in4.6 mm
09:19 PM 44.5°F6.9°C 70.5°F21.4°C - Calm Calm -- 30.06 in1017.9 mb 0.00 in0.0 mm 0.00 in0.0 mm 0.18 in4.6 mm
09:24 PM 43.9°F6.6°C 69.8°F21.0°C - Calm Calm -- 30.06 in1017.9 mb 0.00 in0.0 mm 0.00 in0.0 mm 0.18 in4.6 mm
09:29 PM 43.7°F6.5°C 69.6°F20.9°C - Calm Calm -- 30.06 in1017.9 mb 0.00 in0.0 mm 0.00 in0.0 mm 0.18 in4.6 mm
09:34 PM 43.6°F6.4°C 69.4°F20.8°C - Calm Calm -- 30.06 in1017.9 mb 0.00 in0.0 mm 0.00 in0.0 mm 0.18 in4.6 mm
09:39 PM 43.7°F6.5°C 69.5°F20.8°C - Calm Calm -- 30.06 in1017.9 mb 0.00 in0.0 mm 0.00 in0.0 mm 0.18 in4.6 mm
09:44 PM 43.9°F6.6°C 69.8°F21.0°C - Calm Calm -- 30.06 in1017.9 mb 0.00 in0.0 mm 0.00 in0.0 mm 0.18 in4.6 mm
09:49 PM 44.0°F6.7°C 70.0°F21.1°C - Calm Calm -- 30.06 in1017.9 mb 0.00 in0.0 mm 0.00 in0.0 mm 0.18 in4.6 mm
09:54 PM 44.1°F6.7°C 70.1°F21.2°C - Calm Calm -- 30.06 in1017.9 mb 0.00 in0.0 mm 0.00 in0.0 mm 0.18 in4.6 mm
09:59 PM 44.4°F6.9°C 70.4°F21.3°C - Calm Calm -- 30.06 in1017.9 mb 0.00 in0.0 mm 0.00 in0.0 mm 0.18 in4.6 mm
10:04 PM 44.9°F7.2°C 71.0°F21.7°C - Calm Calm -- 30.05 in1017.6 mb 0.00 in0.0 mm 0.00 in0.0 mm 0.18 in4.6 mm
10:09 PM 45.0°F7.2°C 71.1°F21.7°C - Calm Calm -- 30.05 in1017.6 mb 0.00 in0.0 mm 0.00 in0.0 mm 0.18 in4.6 mm
10:14 PM 44.8°F7.1°C 70.9°F21.6°C - Calm Calm -- 30.05 in1017.6 mb 0.00 in0.0 mm 0.00 in0.0 mm 0.18 in4.6 mm
10:19 PM 44.8°F7.1°C 70.9°F21.6°C - Calm Calm -- 30.05 in1017.6 mb 0.00 in0.0 mm 0.00 in0.0 mm 0.18 in4.6 mm
10:24 PM 44.9°F7.2°C 71.0°F21.7°C - Calm Calm -- 30.05 in1017.6 mb 0.00 in0.0 mm 0.00 in0.0 mm 0.18 in4.6 mm
10:29 PM 44.7°F7.1°C 70.7°F21.5°C - Calm Calm -- 30.05 in1017.6 mb 0.00 in0.0 mm 0.00 in0.0 mm 0.18 in4.6 mm
10:34 PM 44.7°F7.1°C 70.7°F21.5°C - Calm Calm -- 30.05 in1017.6 mb 0.00 in0.0 mm 0.00 in0.0 mm 0.18 in4.6 mm
10:39 PM 44.6°F7.0°C 70.6°F21.4°C - Calm Calm -- 30.05 in1017.6 mb 0.00 in0.0 mm 0.00 in0.0 mm 0.18 in4.6 mm
10:44 PM 44.1°F6.7°C 70.0°F21.1°C - Calm Calm -- 30.05 in1017.6 mb 0.00 in0.0 mm 0.00 in0.0 mm 0.18 in4.6 mm
10:49 PM 44.0°F6.7°C 70.0°F21.1°C - Calm Calm -- 30.05 in1017.6 mb 0.00 in0.0 mm 0.00 in0.0 mm 0.18 in4.6 mm
10:54 PM 44.1°F6.7°C 70.1°F21.2°C - Calm Calm -- 30.05 in1017.6 mb 0.00 in0.0 mm 0.00 in0.0 mm 0.18 in4.6 mm
10:59 PM 44.2°F6.8°C 70.1°F21.2°C - Calm Calm -- 30.05 in1017.6 mb 0.00 in0.0 mm 0.00 in0.0 mm 0.18 in4.6 mm
11:04 PM 44.2°F6.8°C 70.2°F21.2°C - Calm Calm -- 30.05 in1017.6 mb 0.00 in0.0 mm 0.00 in0.0 mm 0.18 in4.6 mm
11:09 PM 44.1°F6.7°C 70.0°F21.1°C - Calm Calm -- 30.05 in1017.6 mb 0.00 in0.0 mm 0.00 in0.0 mm 0.18 in4.6 mm
11:14 PM 44.1°F6.7°C 70.1°F21.2°C - Calm Calm -- 30.05 in1017.6 mb 0.00 in0.0 mm 0.00 in0.0 mm 0.18 in4.6 mm
11:19 PM 44.2°F6.8°C 70.2°F21.2°C - Calm Calm -- 30.05 in1017.6 mb 0.00 in0.0 mm 0.00 in0.0 mm 0.18 in4.6 mm
11:24 PM 44.5°F6.9°C 70.5°F21.4°C - Calm Calm -- 30.05 in1017.6 mb 0.00 in0.0 mm 0.00 in0.0 mm 0.18 in4.6 mm
11:29 PM 44.6°F7.0°C 70.6°F21.4°C - Calm Calm -- 30.05 in1017.6 mb 0.00 in0.0 mm 0.00 in0.0 mm 0.18 in4.6 mm
11:34 PM 44.7°F7.1°C 70.7°F21.5°C - Calm Calm -- 30.05 in1017.6 mb 0.00 in0.0 mm 0.00 in0.0 mm 0.19 in4.8 mm
11:39 PM 45.0°F7.2°C 71.1°F21.7°C - Calm Calm -- 30.05 in1017.6 mb 0.00 in0.0 mm 0.00 in0.0 mm 0.19 in4.8 mm
11:44 PM 45.0°F7.2°C 71.1°F21.7°C - Calm Calm -- 30.05 in1017.6 mb 0.00 in0.0 mm 0.00 in0.0 mm 0.19 in4.8 mm
11:49 PM 44.7°F7.1°C 70.7°F21.5°C - Calm Calm -- 30.05 in1017.6 mb 0.00 in0.0 mm 0.00 in0.0 mm 0.19 in4.8 mm
11:54 PM 44.5°F6.9°C 70.4°F21.3°C - Calm Calm -- 30.05 in1017.6 mb 0.00 in0.0 mm 0.00 in0.0 mm 0.19 in4.8 mm